createdAt,value
2022-11-09T00:01:42.061Z,19.17
2022-11-09T00:04:08.981Z,19.17
2022-11-09T00:06:36.037Z,19.19
2022-11-09T00:09:07.700Z,19.20
2022-11-09T00:11:36.101Z,19.17
2022-11-09T00:14:02.608Z,19.19
2022-11-09T00:16:29.159Z,19.16
2022-11-09T00:18:56.048Z,19.17
2022-11-09T00:21:25.058Z,19.17
2022-11-09T00:23:52.253Z,19.18
2022-11-09T00:26:20.052Z,19.16
2022-11-09T00:28:47.077Z,19.17
2022-11-09T00:31:17.417Z,19.17
2022-11-09T00:33:47.217Z,19.16
2022-11-09T00:36:13.938Z,19.17
2022-11-09T00:38:40.892Z,19.17
2022-11-09T00:41:09.670Z,19.16
2022-11-09T00:43:36.858Z,19.17
2022-11-09T00:46:03.759Z,19.15
2022-11-09T00:48:30.714Z,19.16
2022-11-09T00:50:58.103Z,19.16
2022-11-09T00:53:26.188Z,19.16
2022-11-09T00:56:02.765Z,19.17
2022-11-09T00:58:31.617Z,19.15
2022-11-09T01:00:59.711Z,19.16
2022-11-09T01:03:27.116Z,19.17
2022-11-09T01:05:53.621Z,19.17
2022-11-09T01:08:20.295Z,19.16
2022-11-09T01:10:48.725Z,19.16
2022-11-09T01:13:17.797Z,19.16
2022-11-09T01:15:47.322Z,19.15
2022-11-09T01:18:15.159Z,19.16
2022-11-09T01:20:46.801Z,19.15
2022-11-09T01:23:14.746Z,19.14
2022-11-09T01:25:41.716Z,19.15
2022-11-09T01:28:09.561Z,19.13
2022-11-09T01:30:39.388Z,19.15
2022-11-09T01:33:11.566Z,19.15
2022-11-09T01:35:39.961Z,19.16
2022-11-09T01:38:08.031Z,19.15
2022-11-09T01:40:37.348Z,19.14
2022-11-09T01:43:24.824Z,19.15
2022-11-09T01:46:09.347Z,19.16
2022-11-09T01:48:46.067Z,19.14
2022-11-09T01:51:41.673Z,19.14
2022-11-09T01:54:19.481Z,19.16
2022-11-09T01:56:48.449Z,19.15
2022-11-09T01:59:20.567Z,19.14
2022-11-09T02:01:47.390Z,19.14
2022-11-09T02:04:20.810Z,19.15
2022-11-09T02:06:48.320Z,19.13
2022-11-09T02:09:26.695Z,19.15
2022-11-09T02:11:53.536Z,19.13
2022-11-09T02:14:23.945Z,19.13
2022-11-09T02:16:50.496Z,19.13
2022-11-09T02:19:17.006Z,19.13
2022-11-09T02:21:43.674Z,19.13
2022-11-09T02:24:10.440Z,19.14
2022-11-09T02:26:48.923Z,19.14
2022-11-09T02:29:26.524Z,19.12
2022-11-09T02:31:59.355Z,19.13
2022-11-09T02:34:25.923Z,19.12
2022-11-09T02:36:52.784Z,19.12
2022-11-09T02:39:25.521Z,19.12
2022-11-09T02:42:13.040Z,19.12
2022-11-09T02:44:47.853Z,19.12
2022-11-09T02:47:14.825Z,19.11
2022-11-09T02:49:41.357Z,19.12
2022-11-09T02:52:07.909Z,19.13
2022-11-09T02:54:34.411Z,19.12
2022-11-09T02:57:00.926Z,19.11
2022-11-09T02:59:27.422Z,19.13
2022-11-09T03:01:53.918Z,19.13
2022-11-09T03:04:20.459Z,19.13
2022-11-09T03:06:46.941Z,19.13
2022-11-09T03:09:13.532Z,19.14
2022-11-09T03:11:41.860Z,19.13
2022-11-09T03:14:09.854Z,19.11
2022-11-09T03:16:37.621Z,19.12
2022-11-09T03:19:04.493Z,19.13
2022-11-09T03:21:30.977Z,19.11
2022-11-09T03:23:57.587Z,19.13
2022-11-09T03:26:24.282Z,19.13
2022-11-09T03:28:50.745Z,19.13
2022-11-09T03:31:17.533Z,19.12
2022-11-09T03:33:43.994Z,19.11
2022-11-09T03:36:10.560Z,19.11
2022-11-09T03:38:37.037Z,19.12
2022-11-09T03:41:03.881Z,19.13
2022-11-09T03:43:30.804Z,19.11
2022-11-09T03:45:57.623Z,19.13
2022-11-09T03:48:24.089Z,19.12
2022-11-09T03:50:51.109Z,19.12
2022-11-09T03:53:17.743Z,19.12
2022-11-09T03:55:44.574Z,19.11
2022-11-09T03:58:13.254Z,19.12
2022-11-09T04:00:40.180Z,19.13
2022-11-09T04:03:06.664Z,19.11
2022-11-09T04:05:33.305Z,19.14
2022-11-09T04:07:59.777Z,19.12
2022-11-09T04:10:27.135Z,19.10
2022-11-09T04:12:53.902Z,19.11
2022-11-09T04:15:20.536Z,19.10
2022-11-09T04:17:57.751Z,19.11
2022-11-09T04:20:25.557Z,19.11
2022-11-09T04:22:59.972Z,19.08
2022-11-09T04:25:29.018Z,19.09
2022-11-09T04:27:59.463Z,19.10
2022-11-09T04:30:30.319Z,19.10
2022-11-09T04:32:58.091Z,19.09
2022-11-09T04:35:25.869Z,19.09
2022-11-09T04:37:58.214Z,19.10
2022-11-09T04:40:26.408Z,19.09
2022-11-09T04:42:53.320Z,19.09
2022-11-09T04:45:20.752Z,19.09
2022-11-09T04:47:47.467Z,19.08
2022-11-09T04:50:14.179Z,19.07
2022-11-09T04:52:40.813Z,19.08
2022-11-09T04:55:08.050Z,19.09
2022-11-09T04:57:34.540Z,19.08
2022-11-09T05:00:00.977Z,19.08
2022-11-09T05:02:27.513Z,19.09
2022-11-09T05:04:53.943Z,19.06
2022-11-09T05:07:20.607Z,19.07
2022-11-09T05:09:47.057Z,19.06
2022-11-09T05:12:13.632Z,19.09
2022-11-09T05:14:40.077Z,19.06
2022-11-09T05:17:08.745Z,19.06
2022-11-09T05:19:35.378Z,19.08
2022-11-09T05:22:21.798Z,19.07
2022-11-09T05:24:48.450Z,19.06
2022-11-09T05:27:14.903Z,19.06
2022-11-09T05:29:41.324Z,19.08
2022-11-09T05:32:07.855Z,19.06
2022-11-09T05:34:34.308Z,19.07
2022-11-09T05:37:03.469Z,19.07
2022-11-09T05:39:30.215Z,19.05
2022-11-09T05:41:56.706Z,19.06
2022-11-09T05:44:23.253Z,19.05
2022-11-09T05:46:49.678Z,19.05
2022-11-09T05:49:16.112Z,19.05
2022-11-09T05:51:42.543Z,19.05
2022-11-09T05:54:09.005Z,19.05
2022-11-09T05:56:35.510Z,19.05
2022-11-09T05:59:01.986Z,19.05
2022-11-09T06:01:28.419Z,19.04
2022-11-09T06:03:54.882Z,19.03
2022-11-09T06:06:21.414Z,19.04
2022-11-09T06:08:47.997Z,19.04
2022-11-09T06:11:21.539Z,19.03
2022-11-09T06:13:50.372Z,19.05
2022-11-09T06:16:16.885Z,19.04
2022-11-09T06:18:43.515Z,19.03
2022-11-09T06:21:10.417Z,19.01
2022-11-09T06:23:36.992Z,19.03
2022-11-09T06:26:09.895Z,19.04
2022-11-09T06:28:37.998Z,19.03
2022-11-09T06:31:06.654Z,19.04
2022-11-09T06:33:35.013Z,19.06
2022-11-09T06:36:02.589Z,19.03
2022-11-09T06:38:29.205Z,19.03
2022-11-09T06:40:57.202Z,19.02
2022-11-09T06:43:24.670Z,19.01
2022-11-09T06:45:52.128Z,19.04
2022-11-09T06:48:18.838Z,19.03
2022-11-09T06:50:45.741Z,19.01
2022-11-09T06:53:15.048Z,19.01
2022-11-09T06:55:47.170Z,19.00
2022-11-09T06:58:15.980Z,19.02
2022-11-09T07:00:44.001Z,19.01
2022-11-09T07:03:15.089Z,19.00
2022-11-09T07:05:41.615Z,18.99
2022-11-09T07:08:08.137Z,18.99
2022-11-09T07:10:34.628Z,19.00
2022-11-09T07:13:03.194Z,18.99
2022-11-09T07:15:29.705Z,19.01
2022-11-09T07:18:01.104Z,19.00
2022-11-09T07:20:28.338Z,18.99
2022-11-09T07:22:55.068Z,18.97
2022-11-09T07:25:22.274Z,18.99
2022-11-09T07:27:48.802Z,18.98
2022-11-09T07:30:15.542Z,19.01
2022-11-09T07:35:29.944Z,19.00
2022-11-09T07:38:01.504Z,18.98
2022-11-09T07:40:28.292Z,19.00
2022-11-09T07:42:58.390Z,18.99
2022-11-09T07:45:25.903Z,18.97
2022-11-09T07:47:59.443Z,18.98
2022-11-09T07:50:27.213Z,18.97
2022-11-09T07:52:56.415Z,19.00
2022-11-09T07:55:24.019Z,18.97
2022-11-09T07:57:55.755Z,18.97
2022-11-09T08:00:23.804Z,18.98
2022-11-09T08:02:50.559Z,18.98
2022-11-09T08:05:18.156Z,18.98
2022-11-09T08:07:44.759Z,18.98
2022-11-09T08:10:11.226Z,18.99
2022-11-09T08:12:37.725Z,18.99
2022-11-09T08:15:06.050Z,18.97
2022-11-09T08:17:32.745Z,18.97
2022-11-09T08:19:59.235Z,18.98
2022-11-09T08:22:25.692Z,18.99
2022-11-09T08:24:52.282Z,18.98
2022-11-09T08:27:18.777Z,18.97
2022-11-09T08:29:45.432Z,18.98
2022-11-09T08:32:12.239Z,19.00
2022-11-09T08:34:38.662Z,18.98
2022-11-09T08:37:05.436Z,18.99
2022-11-09T08:39:32.053Z,18.99
2022-11-09T08:41:58.661Z,18.98
2022-11-09T08:44:25.220Z,18.97
2022-11-09T08:46:51.673Z,18.97
2022-11-09T08:49:18.148Z,18.98
2022-11-09T08:51:44.705Z,18.96
2022-11-09T08:54:13.444Z,18.97
2022-11-09T08:56:40.143Z,18.96
2022-11-09T08:59:06.653Z,18.97
2022-11-09T09:01:33.136Z,18.96
2022-11-09T09:03:59.610Z,18.96
2022-11-09T09:06:30.847Z,18.93
2022-11-09T09:08:59.077Z,18.95
2022-11-09T09:11:25.567Z,18.92
2022-11-09T09:13:52.010Z,18.94
2022-11-09T09:16:18.633Z,18.95
2022-11-09T09:18:47.962Z,18.98
2022-11-09T09:21:14.581Z,18.97
2022-11-09T09:23:41.056Z,18.97
2022-11-09T09:26:07.597Z,18.97
2022-11-09T09:28:34.924Z,18.95
2022-11-09T09:31:01.771Z,18.95
2022-11-09T09:33:28.994Z,18.95
2022-11-09T09:35:57.539Z,18.95
2022-11-09T09:38:25.239Z,18.98
2022-11-09T09:41:04.196Z,18.97
2022-11-09T09:43:44.174Z,18.98
2022-11-09T09:46:18.101Z,18.99
2022-11-09T09:48:53.535Z,18.99
2022-11-09T09:51:30.582Z,18.96
2022-11-09T09:54:03.674Z,18.95
2022-11-09T09:56:40.365Z,18.97
2022-11-09T09:59:33.176Z,18.98
2022-11-09T10:01:59.673Z,18.97
2022-11-09T10:04:32.176Z,18.96
2022-11-09T10:07:18.845Z,18.97
2022-11-09T10:10:21.762Z,18.96
2022-11-09T10:13:01.150Z,18.95
2022-11-09T10:15:41.309Z,18.95
2022-11-09T10:18:13.713Z,18.94
2022-11-09T10:20:49.217Z,18.97
2022-11-09T10:23:22.048Z,18.97
2022-11-09T10:26:15.442Z,18.96
2022-11-09T10:29:09.615Z,18.98
2022-11-09T10:31:41.093Z,18.99
2022-11-09T10:34:25.185Z,18.99
2022-11-09T10:37:12.918Z,19.00
2022-11-09T10:39:44.354Z,18.99
2022-11-09T10:42:12.262Z,19.00
2022-11-09T10:44:38.751Z,19.03
2022-11-09T10:47:09.053Z,19.03
2022-11-09T10:49:36.751Z,19.02
2022-11-09T10:52:05.121Z,19.01
2022-11-09T10:54:34.878Z,19.01
2022-11-09T10:57:07.137Z,19.02
2022-11-09T10:59:52.074Z,19.02
2022-11-09T11:02:24.514Z,19.03
2022-11-09T11:05:06.662Z,19.02
2022-11-09T11:07:35.289Z,19.00
2022-11-09T11:10:16.927Z,19.00
2022-11-09T11:12:51.519Z,19.00
2022-11-09T11:15:35.558Z,19.00
2022-11-09T11:18:12.888Z,19.00
2022-11-09T11:20:39.585Z,19.00
2022-11-09T11:23:26.640Z,19.00
2022-11-09T11:25:53.277Z,19.00
2022-11-09T11:28:34.728Z,19.03
2022-11-09T11:31:02.000Z,19.04
2022-11-09T11:33:29.770Z,19.10
2022-11-09T11:36:04.289Z,19.11
2022-11-09T11:38:49.334Z,19.13
2022-11-09T11:41:49.718Z,19.13
2022-11-09T11:44:30.367Z,19.15
2022-11-09T11:47:20.602Z,19.20
2022-11-09T11:50:21.865Z,19.19
2022-11-09T11:53:31.562Z,19.23
2022-11-09T11:56:01.091Z,19.25
2022-11-09T11:58:42.837Z,19.25
2022-11-09T12:01:27.739Z,19.28
2022-11-09T12:04:21.110Z,19.29
2022-11-09T12:07:02.584Z,19.30
2022-11-09T12:09:31.776Z,19.32
2022-11-09T12:12:16.806Z,19.33
2022-11-09T12:14:57.804Z,19.34
2022-11-09T12:17:37.950Z,19.35
2022-11-09T12:20:21.760Z,19.37
2022-11-09T12:23:00.022Z,19.38
2022-11-09T12:25:35.992Z,19.40
2022-11-09T12:28:17.628Z,19.41
2022-11-09T12:31:09.938Z,19.42
2022-11-09T12:33:55.279Z,19.44
2022-11-09T12:36:33.960Z,19.45
2022-11-09T12:39:07.491Z,19.47
2022-11-09T12:41:37.457Z,19.48
2022-11-09T12:44:11.987Z,19.50
2022-11-09T12:46:50.262Z,19.51
2022-11-09T12:49:34.715Z,19.52
2022-11-09T12:52:01.471Z,19.54
2022-11-09T12:54:28.545Z,19.54
2022-11-09T12:57:01.321Z,19.56
2022-11-09T12:59:27.712Z,19.57
2022-11-09T13:01:57.250Z,19.57
2022-11-09T13:04:25.778Z,19.58
2022-11-09T13:07:07.669Z,19.59
2022-11-09T13:09:44.324Z,19.60
2022-11-09T13:12:26.752Z,19.61
2022-11-09T13:14:53.620Z,19.62
2022-11-09T13:17:25.816Z,19.62
2022-11-09T13:19:55.214Z,19.63
2022-11-09T13:22:22.919Z,19.64
2022-11-09T13:24:54.078Z,19.64
2022-11-09T13:27:32.835Z,19.65
2022-11-09T13:30:03.033Z,19.67
2022-11-09T13:32:33.607Z,19.67
2022-11-09T13:35:04.586Z,19.69
2022-11-09T13:37:44.813Z,19.69
2022-11-09T13:40:33.179Z,19.68
2022-11-09T13:43:08.801Z,19.71
2022-11-09T13:45:37.453Z,19.69
2022-11-09T13:48:06.624Z,19.69
2022-11-09T13:50:34.835Z,19.72
2022-11-09T13:53:02.746Z,19.70
2022-11-09T13:55:40.771Z,19.71
2022-11-09T13:58:38.794Z,19.72
2022-11-09T14:01:05.255Z,19.70
2022-11-09T14:03:33.300Z,19.69
2022-11-09T14:06:02.553Z,19.68
2022-11-09T14:08:40.237Z,19.68
2022-11-09T14:11:32.302Z,19.69
2022-11-09T14:14:13.931Z,19.74
2022-11-09T14:16:52.685Z,19.75
2022-11-09T14:19:44.572Z,19.76
2022-11-09T14:22:16.538Z,19.75
2022-11-09T14:24:44.066Z,19.75
2022-11-09T14:27:10.461Z,19.76
2022-11-09T14:29:47.162Z,19.75
2022-11-09T14:32:22.755Z,19.77
2022-11-09T14:34:49.387Z,19.78
2022-11-09T14:37:16.697Z,19.77
2022-11-09T14:39:49.191Z,19.79
2022-11-09T14:42:21.488Z,19.78
2022-11-09T14:44:49.085Z,19.76
2022-11-09T14:47:26.273Z,19.74
2022-11-09T14:49:53.244Z,19.73
2022-11-09T14:52:27.640Z,19.76
2022-11-09T14:54:54.632Z,19.75
2022-11-09T14:57:23.261Z,19.74
2022-11-09T14:59:50.975Z,19.76
2022-11-09T15:02:19.924Z,19.74
2022-11-09T15:04:53.615Z,19.73
2022-11-09T15:07:23.043Z,19.74
2022-11-09T15:10:00.758Z,19.73
2022-11-09T15:12:29.676Z,19.73
2022-11-09T15:15:02.197Z,19.75
2022-11-09T15:17:37.199Z,19.75
2022-11-09T15:20:06.355Z,19.75
2022-11-09T15:22:51.158Z,19.75
2022-11-09T15:25:29.213Z,19.74
2022-11-09T15:28:19.013Z,19.74
2022-11-09T15:31:12.642Z,19.73
2022-11-09T15:33:49.953Z,19.72
2022-11-09T15:36:25.423Z,19.75
2022-11-09T15:39:02.575Z,19.72
2022-11-09T15:41:30.469Z,19.72
2022-11-09T15:43:58.330Z,19.71
2022-11-09T15:46:28.194Z,19.73
2022-11-09T15:48:59.083Z,19.72
2022-11-09T15:51:25.645Z,19.71
2022-11-09T15:53:52.142Z,19.68
2022-11-09T15:56:21.143Z,19.69
2022-11-09T15:58:49.349Z,19.71
2022-11-09T16:01:16.407Z,19.69
2022-11-09T16:03:42.998Z,19.71
2022-11-09T16:06:15.169Z,19.70
2022-11-09T16:08:41.732Z,19.70
2022-11-09T16:11:10.265Z,19.70
2022-11-09T16:13:36.735Z,19.70
2022-11-09T16:16:08.064Z,19.68
2022-11-09T16:18:34.901Z,19.68
2022-11-09T16:21:13.170Z,19.67
2022-11-09T16:23:39.664Z,19.67
2022-11-09T16:26:24.369Z,19.67
2022-11-09T16:28:50.906Z,19.68
2022-11-09T16:31:25.271Z,19.68
2022-11-09T16:34:01.629Z,19.67
2022-11-09T16:36:28.984Z,19.67
2022-11-09T16:38:56.625Z,19.67
2022-11-09T16:41:24.239Z,19.68
2022-11-09T16:43:55.051Z,19.68
2022-11-09T16:46:26.477Z,19.67
2022-11-09T16:48:53.962Z,19.67
2022-11-09T16:51:21.528Z,19.67
2022-11-09T16:53:47.976Z,19.64
2022-11-09T16:56:14.574Z,19.63
2022-11-09T16:58:41.059Z,19.65
2022-11-09T17:01:12.393Z,19.64
2022-11-09T17:03:39.128Z,19.64
2022-11-09T17:06:10.803Z,19.63
2022-11-09T17:08:41.495Z,19.62
2022-11-09T17:11:12.566Z,19.62
2022-11-09T17:13:39.351Z,19.63
2022-11-09T17:16:09.770Z,19.62
2022-11-09T17:18:37.838Z,19.63
2022-11-09T17:21:09.815Z,19.63
2022-11-09T17:23:36.431Z,19.62
2022-11-09T17:26:05.136Z,19.60
2022-11-09T17:28:32.598Z,19.60
2022-11-09T17:30:59.125Z,19.60
2022-11-09T17:33:25.604Z,19.61
2022-11-09T17:36:03.909Z,19.60
2022-11-09T17:38:31.045Z,19.61
2022-11-09T17:41:08.846Z,19.59
2022-11-09T17:43:37.464Z,19.58
2022-11-09T17:46:04.935Z,19.59
2022-11-09T17:48:33.227Z,19.59
2022-11-09T17:51:00.264Z,19.58
2022-11-09T17:53:26.982Z,19.56
2022-11-09T17:55:53.543Z,19.56
2022-11-09T17:58:20.325Z,19.57
2022-11-09T18:00:46.997Z,19.57
2022-11-09T18:03:13.575Z,19.57
2022-11-09T18:05:42.106Z,19.57
2022-11-09T18:08:09.956Z,19.54
2022-11-09T18:10:42.529Z,19.53
2022-11-09T18:13:09.781Z,19.54
2022-11-09T18:15:37.599Z,19.55
2022-11-09T18:18:04.741Z,19.53
2022-11-09T18:20:31.268Z,19.56
2022-11-09T18:22:57.761Z,19.55
2022-11-09T18:25:24.702Z,19.55
2022-11-09T18:27:52.559Z,19.55
2022-11-09T18:30:19.356Z,19.55
2022-11-09T18:32:45.832Z,19.53
2022-11-09T18:35:12.311Z,19.53
2022-11-09T18:37:39.216Z,19.52
2022-11-09T18:40:07.226Z,19.53
2022-11-09T18:42:33.749Z,19.52
2022-11-09T18:45:00.241Z,19.53
2022-11-09T18:47:26.841Z,19.54
2022-11-09T18:49:53.348Z,19.52
2022-11-09T18:52:19.901Z,19.52
2022-11-09T18:54:46.507Z,19.51
2022-11-09T18:57:16.006Z,19.52
2022-11-09T18:59:45.280Z,19.51
2022-11-09T19:02:13.595Z,19.51
2022-11-09T19:04:40.355Z,19.49
2022-11-09T19:07:06.934Z,19.49
2022-11-09T19:09:38.612Z,19.49
2022-11-09T19:12:08.416Z,19.49
2022-11-09T19:14:44.028Z,19.49
2022-11-09T19:17:13.755Z,19.50
2022-11-09T19:19:42.221Z,19.49
2022-11-09T19:22:16.956Z,19.49
2022-11-09T19:24:44.067Z,19.48
2022-11-09T19:27:10.561Z,19.49
2022-11-09T19:29:37.172Z,19.49
2022-11-09T19:32:04.129Z,19.49
2022-11-09T19:34:30.789Z,19.49
2022-11-09T19:36:57.276Z,19.47
2022-11-09T19:39:23.877Z,19.46
2022-11-09T19:41:50.355Z,19.48
2022-11-09T19:44:18.111Z,19.46
2022-11-09T19:46:44.908Z,19.45
2022-11-09T19:49:11.830Z,19.46
2022-11-09T19:51:39.272Z,19.46
2022-11-09T19:54:06.294Z,19.47
2022-11-09T19:56:33.480Z,19.47
2022-11-09T19:59:02.341Z,19.46
2022-11-09T20:01:30.311Z,19.46
2022-11-09T20:03:59.257Z,19.44
2022-11-09T20:06:26.753Z,19.45
2022-11-09T20:08:54.104Z,19.45
2022-11-09T20:11:41.428Z,19.46
2022-11-09T20:14:09.321Z,19.45
2022-11-09T20:16:37.388Z,19.44
2022-11-09T20:19:05.377Z,19.44
2022-11-09T20:21:32.191Z,19.44
2022-11-09T20:23:58.735Z,19.45
2022-11-09T20:26:25.229Z,19.44
2022-11-09T20:28:53.469Z,19.42
2022-11-09T20:31:20.890Z,19.42
2022-11-09T20:33:47.446Z,19.41
2022-11-09T20:36:14.436Z,19.42
2022-11-09T20:38:42.311Z,19.42
2022-11-09T20:41:11.439Z,19.42
2022-11-09T20:43:38.594Z,19.40
2022-11-09T20:46:14.688Z,19.41
2022-11-09T20:48:57.326Z,19.40
2022-11-09T20:51:24.547Z,19.39
2022-11-09T20:53:51.568Z,19.40
2022-11-09T20:56:19.536Z,19.40
2022-11-09T20:58:46.232Z,19.39
2022-11-09T21:01:17.469Z,19.40
2022-11-09T21:03:44.979Z,19.38
2022-11-09T21:06:12.562Z,19.40
2022-11-09T21:08:39.753Z,19.39
2022-11-09T21:11:08.061Z,19.38
2022-11-09T21:13:34.877Z,19.39
2022-11-09T21:16:06.221Z,19.39
2022-11-09T21:18:32.982Z,19.40
2022-11-09T21:21:11.742Z,19.37
2022-11-09T21:23:57.584Z,19.39
2022-11-09T21:26:42.934Z,19.35
2022-11-09T21:29:29.772Z,19.37
2022-11-09T21:31:56.360Z,19.37
2022-11-09T21:34:22.930Z,19.36
2022-11-09T21:36:49.444Z,19.36
2022-11-09T21:39:16.140Z,19.37
2022-11-09T21:41:43.111Z,19.37
2022-11-09T21:44:11.811Z,19.35
2022-11-09T21:46:40.649Z,19.35
2022-11-09T21:49:08.831Z,19.36
2022-11-09T21:51:37.024Z,19.36
2022-11-09T21:54:04.823Z,19.37
2022-11-09T21:56:31.812Z,19.35
2022-11-09T21:58:58.437Z,19.36
2022-11-09T22:01:25.279Z,19.35
2022-11-09T22:03:52.385Z,19.35
2022-11-09T22:06:19.709Z,19.33
2022-11-09T22:08:47.354Z,19.33
2022-11-09T22:11:17.534Z,19.32
2022-11-09T22:14:02.828Z,19.32
2022-11-09T22:16:33.410Z,19.33
2022-11-09T22:19:21.485Z,19.34
2022-11-09T22:21:47.991Z,19.35
2022-11-09T22:24:14.551Z,19.33
2022-11-09T22:26:41.028Z,19.31
2022-11-09T22:29:07.526Z,19.34
2022-11-09T22:31:33.993Z,19.33
2022-11-09T22:34:00.464Z,19.31
2022-11-09T22:36:26.937Z,19.30
2022-11-09T22:38:53.456Z,19.31
2022-11-09T22:41:19.934Z,19.31
2022-11-09T22:43:46.386Z,19.30
2022-11-09T22:46:15.326Z,19.28
2022-11-09T22:48:43.412Z,19.30
2022-11-09T22:51:12.611Z,19.28
2022-11-09T22:53:39.356Z,19.30
2022-11-09T22:56:06.407Z,19.30
2022-11-09T22:58:33.138Z,19.29
2022-11-09T23:01:12.241Z,19.32
2022-11-09T23:03:39.365Z,19.31
2022-11-09T23:06:12.142Z,19.31
2022-11-09T23:08:38.722Z,19.30
2022-11-09T23:11:06.691Z,19.32
2022-11-09T23:13:34.152Z,19.30
2022-11-09T23:16:03.712Z,19.29
2022-11-09T23:18:48.978Z,19.29
2022-11-09T23:21:15.852Z,19.27
2022-11-09T23:23:42.594Z,19.26
2022-11-09T23:26:10.302Z,19.26
2022-11-09T23:28:37.735Z,19.26
2022-11-09T23:31:08.783Z,19.28
2022-11-09T23:33:35.914Z,19.26
2022-11-09T23:36:05.053Z,19.28
2022-11-09T23:38:36.916Z,19.27
2022-11-09T23:41:05.134Z,19.27
2022-11-09T23:43:31.632Z,19.27
2022-11-09T23:46:03.334Z,19.26
2022-11-09T23:48:29.841Z,19.25
2022-11-09T23:51:00.611Z,19.26
2022-11-09T23:53:29.113Z,19.25
2022-11-09T23:56:09.724Z,19.25
2022-11-09T23:58:37.094Z,19.24
